Fillmore, Utah
Current Conditions -  °F | °C
As of 1:55 PM on Tuesday 25 Nov 2014 (Local Time) from KDTA Reporting Station
Scattered Clouds Scattered Clouds  
Wind Chill: 43°   Ceiling: Unl
Heat Index: 46°   Visibility: 10mi
Dew Point: 16°   Wind: 5mph
Humidity: 30%   Direction: 240°WSW
Pressure: 30.36"   Gusts: NA
Location:  38.97°N, 112.32°W
Report Text: KDTA 252055Z AUTO 24004KT 10SM SCT085 08/M09 A3036 RMK AO1 T00751090
Loading
Personal Weather Stations






























Interactive Weather Map New forecast layout! Learn more

10-Day Weather Forecast

Advertisements
Track Severe Weather on mobile